Time;durP1;ratioP1;P1;durP2;ratioP2;P2;SDS_P1;SDS_P2;PMS_P1;PMS_P2;Temp;Humidity;BMP_temperature;BMP_pressure;BME280_temperature;BME280_humidity;BME280_pressure;Samples;Min_cycle;Max_cycle;Signal;HPM_P1;HPM_P2
2022/11/23 00:01:31;;;;;;;16.48;9.60;;;;;;;-1.08;100.00;99136.47;1771002;79;21638;-72
2022/11/23 00:04:02;;;;;;;15.55;9.95;;;;;;;-1.09;100.00;99136.16;1765935;80;20987;-73
2022/11/23 00:06:29;;;;;;;14.53;9.45;;;;;;;-1.05;100.00;99137.38;1769873;80;21031;-72
2022/11/23 00:08:56;;;;;;;15.25;9.68;;;;;;;-0.99;100.00;99137.03;1780339;79;21426;-72
2022/11/23 00:11:24;;;;;;;14.98;9.70;;;;;;;-0.95;100.00;99137.42;1756845;81;21039;-73
2022/11/23 00:13:50;;;;;;;16.15;9.90;;;;;;;-0.93;100.00;99136.20;1767452;80;21470;-73
2022/11/23 00:16:19;;;;;;;;;;;;;;;-0.92;100.00;99145.05;1768687;79;21038;-73
2022/11/23 00:18:46;;;;;;;18.42;10.93;;;;;;;-0.86;100.00;99145.52;1749272;81;20126;-73
2022/11/23 00:21:17;;;;;;;17.42;10.70;;;;;;;-0.85;100.00;99148.51;1769514;80;21169;-73
2022/11/23 00:23:44;;;;;;;16.93;10.43;;;;;;;-0.78;100.00;99151.97;1777321;79;21045;-73
2022/11/23 00:26:10;;;;;;;15.32;10.00;;;;;;;-0.75;100.00;99151.54;1774797;79;21080;-73
2022/11/23 00:28:39;;;;;;;16.02;10.32;;;;;;;-0.76;100.00;99156.06;1760030;80;20990;-73
2022/11/23 00:31:06;;;;;;;15.00;10.03;;;;;;;-0.78;100.00;99158.11;1780705;79;21082;-73
2022/11/23 00:33:32;;;;;;;17.77;10.98;;;;;;;-0.72;100.00;99154.61;1777974;79;21343;-72
2022/11/23 00:36:02;;;;;;;18.32;11.00;;;;;;;-0.70;100.00;99153.86;1795530;79;21064;-73
2022/11/23 00:38:30;;;;;;;17.45;11.20;;;;;;;-0.71;100.00;99152.22;1790384;79;21464;-72
2022/11/23 00:41:00;;;;;;;18.35;11.33;;;;;;;-0.70;100.00;99151.19;1794613;79;21058;-72
2022/11/23 00:43:28;;;;;;;15.05;9.78;;;;;;;-0.71;100.00;99148.75;1785028;79;21026;-73
2022/11/23 00:46:13;;;;;;;17.10;11.53;;;;;;;-0.70;100.00;99159.72;1796046;78;21039;-73
2022/11/23 00:48:43;;;;;;;17.17;10.80;;;;;;;-0.69;100.00;99161.37;1789096;78;21053;-73
2022/11/23 00:51:12;;;;;;;16.02;10.15;;;;;;;-0.64;100.00;99158.89;1787500;79;21054;-73
2022/11/23 00:53:39;;;;;;;17.73;11.50;;;;;;;-0.66;100.00;99155.08;1797294;79;21015;-73
2022/11/23 00:56:07;;;;;;;19.12;12.10;;;;;;;-0.69;100.00;99150.16;1803886;78;21725;-73
2022/11/23 00:58:33;;;;;;;19.98;12.55;;;;;;;-0.72;100.00;99156.45;1797399;78;21001;-73
2022/11/23 01:01:09;;;;;;;19.07;11.55;;;;;;;-0.74;100.00;99162.52;1790966;78;21062;-73
2022/11/23 01:03:38;;;;;;;17.90;11.97;;;;;;;-0.71;100.00;99170.92;1796023;78;20998;-73
2022/11/23 01:06:09;;;;;;;17.70;11.40;;;;;;;-0.73;100.00;99172.17;1789497;78;21022;-73
2022/11/23 01:08:37;;;;;;;20.85;12.98;;;;;;;-0.73;100.00;99164.98;1801758;79;20955;-73
2022/11/23 01:11:08;;;;;;;;;;;;;;;-0.81;100.00;99156.38;1790384;78;21047;-72
2022/11/23 01:13:37;;;;;;;20.50;12.00;;;;;;;-0.85;100.00;99164.55;1792898;78;20153;-73
2022/11/23 01:16:08;;;;;;;19.77;12.60;;;;;;;-0.91;100.00;99163.52;1801665;78;21074;-73
2022/11/23 01:18:37;;;;;;;19.87;12.50;;;;;;;-0.90;100.00;99177.19;1792376;79;21015;-73
2022/11/23 01:21:04;;;;;;;20.72;13.00;;;;;;;-0.91;100.00;99175.55;1790917;78;21055;-73
2022/11/23 01:23:31;;;;;;;20.15;11.80;;;;;;;-0.92;100.00;99175.77;1794929;78;20995;-73
2022/11/23 01:25:59;;;;;;;20.00;11.80;;;;;;;-0.87;100.00;99165.25;1775676;79;21074;-73
2022/11/23 01:28:25;;;;;;;22.73;13.95;;;;;;;-0.88;100.00;99169.77;1751843;79;21003;-73
2022/11/23 01:30:52;;;;;;;18.77;11.33;;;;;;;-0.89;100.00;99174.84;1792646;78;21062;-74
2022/11/23 01:33:19;;;;;;;22.17;12.80;;;;;;;-0.88;100.00;99171.62;1801682;78;21114;-73
2022/11/23 01:35:47;;;;;;;23.35;13.85;;;;;;;-0.92;100.00;99183.25;1786645;78;21058;-72
2022/11/23 01:38:15;;;;;;;22.25;13.70;;;;;;;-0.92;100.00;99185.13;1794931;78;21090;-73
2022/11/23 01:40:42;;;;;;;;;;;;;;;-0.91;100.00;99187.56;1812086;78;21097;-73
2022/11/23 01:43:15;;;;;;;23.70;14.13;;;;;;;-0.92;100.00;99184.58;1794523;78;20133;-73
2022/11/23 01:45:58;;;;;;;25.37;14.75;;;;;;;-0.92;100.00;99186.46;1806908;78;21667;-74
2022/11/23 01:48:54;;;;;;;23.00;14.33;;;;;;;-0.91;100.00;99177.39;1795857;79;21002;-73
2022/11/23 01:51:26;;;;;;;22.73;14.03;;;;;;;-0.93;100.00;99179.47;1779728;78;21035;-73
2022/11/23 01:54:12;;;;;;;22.02;13.43;;;;;;;-1.02;100.00;99182.36;1777697;79;20990;-73
2022/11/23 01:56:43;;;;;;;21.35;13.70;;;;;;;-1.01;100.00;99184.53;1793468;78;21593;-73
2022/11/23 01:59:15;;;;;;;24.95;14.15;;;;;;;-0.95;100.00;99186.86;1802691;78;21057;-73
2022/11/23 02:01:42;;;;;;;20.57;13.08;;;;;;;-0.92;100.00;99187.80;1786117;79;21587;-73
2022/11/23 02:04:14;;;;;;;23.05;13.58;;;;;;;-0.96;100.00;99180.72;1772758;80;20991;-73
2022/11/23 02:06:43;;;;;;;22.75;13.50;;;;;;;-0.95;100.00;99181.00;1779334;79;21058;-73
2022/11/23 02:09:09;;;;;;;23.40;13.85;;;;;;;-0.98;100.00;99188.11;1789212;79;20955;-74
2022/11/23 02:14:59;;;;;;;25.57;14.45;;;;;;;-0.84;100.00;99183.53;1808578;78;22665;-74
2022/11/23 02:17:25;;;;;;;23.07;13.98;;;;;;;-0.89;100.00;99189.53;1782786;78;21030;-73
2022/11/23 02:20:09;;;;;;;22.75;14.35;;;;;;;-0.90;100.00;99191.06;1799909;78;21391;-73
2022/11/23 02:26:14;;;;;;;22.80;13.53;;;;;;;-0.87;100.00;99195.47;1662375;84;21006;-73
2022/11/23 02:28:54;;;;;;;21.40;13.48;;;;;;;-0.89;100.00;99189.53;1684334;84;21645;-73
2022/11/23 02:33:14;;;;;;;22.67;13.25;;;;;;;-0.86;100.00;99181.59;1804413;78;23230;-73
2022/11/23 02:35:53;;;;;;;21.05;13.50;;;;;;;-1.01;100.00;99194.70;1765498;80;20987;-74
2022/11/23 02:38:22;;;;;;;24.02;14.10;;;;;;;-1.02;100.00;99198.39;1760866;80;21057;-74
2022/11/23 02:40:48;;;;;;;23.20;13.05;;;;;;;-0.98;100.00;99197.97;1772598;80;21074;-74
2022/11/23 02:43:15;;;;;;;22.02;13.50;;;;;;;-0.94;100.00;99205.36;1780640;80;21125;-73
2022/11/23 02:45:56;;;;;;;;;;;;;;;-0.93;100.00;99204.34;1746116;80;21029;-74
2022/11/23 02:48:24;;;;;;;24.12;14.65;;;;;;;-0.99;100.00;99217.19;1772314;80;20159;-73
2022/11/23 02:50:51;;;;;;;25.52;14.87;;;;;;;-1.06;100.00;99222.55;1770297;80;21549;-73
2022/11/23 02:53:17;;;;;;;24.90;14.10;;;;;;;-1.03;100.00;99217.33;1763780;80;21046;-74
2022/11/23 02:55:44;;;;;;;24.77;14.53;;;;;;;-0.97;100.00;99216.47;1769046;80;21042;-73
2022/11/23 02:58:10;;;;;;;22.80;14.55;;;;;;;-0.92;100.00;99216.64;1772160;80;21072;-73
2022/11/23 03:00:37;;;;;;;;;;;;;;;-0.91;100.00;99214.29;1767728;80;21061;-72
2022/11/23 03:03:04;;;;;;;24.13;14.33;;;;;;;-0.93;100.00;99220.88;1773954;80;20454;-72
2022/11/23 03:05:32;;;;;;;21.37;12.60;;;;;;;-0.93;100.00;99216.36;1752713;80;21713;-73
2022/11/23 03:08:01;;;;;;;20.05;11.63;;;;;;;-0.87;100.00;99214.17;1769732;80;21061;-72
2022/11/23 03:10:28;;;;;;;18.42;10.80;;;;;;;-0.85;100.00;99219.33;1741900;80;20987;-72
2022/11/23 03:12:55;;;;;;;19.23;10.88;;;;;;;-0.92;100.00;99213.18;1767705;80;21046;-72
2022/11/23 03:15:23;;;;;;;21.07;12.20;;;;;;;-0.96;100.00;99210.62;1756088;80;20970;-73
2022/11/23 03:17:50;;;;;;;19.27;10.90;;;;;;;-0.93;100.00;99211.53;1763125;80;21535;-72
2022/11/23 03:20:19;;;;;;;17.92;10.45;;;;;;;-0.90;100.00;99211.93;1770973;80;20990;-73
2022/11/23 03:22:48;;;;;;;18.98;11.08;;;;;;;-0.86;100.00;99212.33;1769650;80;21164;-72
2022/11/23 03:25:15;;;;;;;20.52;12.23;;;;;;;-0.86;100.00;99205.14;1760157;80;21044;-73
2022/11/23 03:27:44;;;;;;;17.73;11.35;;;;;;;-0.88;100.00;99211.19;1768595;80;21088;-72
2022/11/23 03:30:10;;;;;;;;;;;;;;;-0.84;100.00;99212.41;1767931;80;21037;-73
2022/11/23 03:32:37;;;;;;;18.45;10.88;;;;;;;-0.77;100.00;99223.08;1756219;80;20134;-72
2022/11/23 03:35:05;;;;;;;17.35;10.08;;;;;;;-0.84;100.00;99224.44;1731200;81;21444;-72
2022/11/23 03:37:34;;;;;;;19.92;11.70;;;;;;;-0.84;100.00;99232.45;1744480;81;22322;-73
2022/11/23 03:40:01;;;;;;;19.02;10.35;;;;;;;-0.87;100.00;99228.88;1754678;80;21053;-72
2022/11/23 03:42:31;;;;;;;16.07;9.88;;;;;;;-0.85;100.00;99232.69;1734568;80;21086;-73
2022/11/23 03:44:58;;;;;;;14.95;8.58;;;;;;;-0.88;100.00;99233.91;1769311;80;21049;-72
2022/11/23 03:47:25;;;;;;;14.40;9.20;;;;;;;-0.91;100.00;99230.32;1759608;80;21523;-72
2022/11/23 03:49:51;;;;;;;16.80;10.50;;;;;;;-0.97;100.00;99226.33;1719751;81;21485;-72
2022/11/23 03:52:19;;;;;;;14.95;8.83;;;;;;;-1.02;100.00;99233.13;1759289;80;21078;-72
2022/11/23 03:54:47;;;;;;;17.02;10.13;;;;;;;-1.02;100.00;99222.95;1744090;80;20993;-72
2022/11/23 03:57:14;;;;;;;15.40;9.05;;;;;;;-1.03;100.00;99219.99;1758042;80;21453;-72
2022/11/23 03:59:40;;;;;;;14.35;8.63;;;;;;;-1.00;100.00;99231.59;1758842;80;21014;-72
2022/11/23 04:02:08;;;;;;;17.75;9.68;;;;;;;-1.07;100.00;99222.77;1759282;80;21151;-73
2022/11/23 04:04:37;;;;;;;14.47;8.23;;;;;;;-1.12;100.00;99226.58;1736327;81;21062;-72
2022/11/23 04:07:12;;;;;;;13.55;8.50;;;;;;;-1.11;100.00;99221.03;1735108;80;21676;-73
2022/11/23 04:09:42;;;;;;;13.50;8.95;;;;;;;-1.12;100.00;99227.91;1758270;80;21051;-73
2022/11/23 04:12:27;;;;;;;16.65;9.03;;;;;;;-1.12;100.00;99227.91;1739827;80;21055;-73
2022/11/23 04:14:53;;;;;;;12.25;7.83;;;;;;;-1.14;100.00;99233.48;1755166;80;21066;-73
2022/11/23 04:17:20;;;;;;;13.10;8.35;;;;;;;-1.15;100.00;99229.67;1755186;81;21714;-73
2022/11/23 04:19:48;;;;;;;13.20;7.53;;;;;;;-1.12;100.00;99231.92;1741374;81;21070;-73
2022/11/23 04:22:15;;;;;;;12.33;7.53;;;;;;;-1.13;100.00;99231.60;1738680;81;21085;-73
2022/11/23 04:24:42;;;;;;;11.90;7.40;;;;;;;-1.19;100.00;99231.94;1759685;81;21001;-73
2022/11/23 04:27:09;;;;;;;12.28;7.47;;;;;;;-1.19;100.00;99227.11;1756763;80;21055;-73
2022/11/23 04:29:37;;;;;;;12.58;7.30;;;;;;;-1.17;100.00;99225.06;1752031;80;21562;-74
2022/11/23 04:32:04;;;;;;;14.28;8.08;;;;;;;-1.20;100.00;99228.12;1748617;80;21101;-73
2022/11/23 04:34:31;;;;;;;11.43;7.00;;;;;;;-1.16;100.00;99224.83;1728698;81;21552;-74
2022/11/23 04:37:00;;;;;;;12.80;7.90;;;;;;;-1.15;100.00;99224.33;1724600;81;21106;-73
2022/11/23 04:39:28;;;;;;;11.75;6.97;;;;;;;-1.15;100.00;99222.98;1723329;81;21094;-73
2022/11/23 04:42:00;;;;;;;12.05;7.67;;;;;;;-1.15;100.00;99227.82;1707324;81;21593;-73
2022/11/23 04:44:26;;;;;;;10.82;6.47;;;;;;;-1.23;100.00;99224.03;1725115;81;20963;-74
2022/11/23 04:46:54;;;;;;;12.43;7.87;;;;;;;-1.20;100.00;99225.45;1717443;81;21118;-74
2022/11/23 04:49:21;;;;;;;11.95;7.40;;;;;;;-1.15;100.00;99231.00;1723224;81;21031;-73
2022/11/23 04:51:47;;;;;;;13.43;8.53;;;;;;;-1.15;100.00;99233.16;1723792;81;21770;-73
2022/11/23 04:54:14;;;;;;;14.25;8.60;;;;;;;-1.20;100.00;99236.13;1698885;81;21075;-73
2022/11/23 04:56:44;;;;;;;13.25;8.58;;;;;;;-1.15;100.00;99237.68;1727321;81;21521;-73
2022/11/23 04:59:12;;;;;;;14.90;9.38;;;;;;;-1.11;100.00;99234.39;1727893;81;21002;-73
2022/11/23 05:01:38;;;;;;;13.93;9.00;;;;;;;-1.12;100.00;99226.58;1731530;81;20958;-72
2022/11/23 05:04:23;;;;;;;12.45;7.92;;;;;;;-1.08;100.00;99229.96;1719602;81;21864;-73
2022/11/23 05:06:49;;;;;;;13.18;8.30;;;;;;;-1.06;100.00;99234.56;1716712;81;21058;-73
2022/11/23 05:09:17;;;;;;;13.70;8.45;;;;;;;-1.07;100.00;99223.60;1667281;85;21636;-73
2022/11/23 05:20:11;;;;;;;14.78;8.33;;;;;;;-1.06;100.00;99229.22;1776817;78;22945;-74
2022/11/23 05:22:41;;;;;;;12.80;7.95;;;;;;;-1.16;100.00;99230.69;1740148;80;21656;-74
2022/11/23 05:25:10;;;;;;;14.15;8.48;;;;;;;-1.23;100.00;99236.05;1711449;82;21932;-74
2022/11/23 05:27:39;;;;;;;14.68;8.80;;;;;;;-1.28;100.00;99232.37;1682848;81;21720;-74
2022/11/23 05:30:07;;;;;;;15.65;9.88;;;;;;;-1.31;100.00;99243.47;1697568;83;20978;-74
2022/11/23 05:35:37;;;;;;;14.28;8.95;;;;;;;-1.15;100.00;99240.35;1886495;74;22933;-74
2022/11/23 05:38:04;;;;;;;13.35;8.13;;;;;;;-1.16;100.00;99259.56;1849764;77;21040;-73
2022/11/23 05:40:32;;;;;;;13.35;8.43;;;;;;;-1.08;100.00;99267.36;1838288;76;21557;-73
2022/11/23 05:43:00;;;;;;;12.45;7.67;;;;;;;-1.00;100.00;99263.66;1842454;76;21107;-73
2022/11/23 05:45:26;;;;;;;13.20;7.92;;;;;;;-0.99;100.00;99270.62;1850978;76;21642;-73
2022/11/23 05:47:56;;;;;;;12.37;7.85;;;;;;;-0.98;100.00;99281.62;1827465;76;21031;-73
2022/11/23 05:50:27;;;;;;;13.48;8.33;;;;;;;-0.96;100.00;99278.23;1840333;76;21056;-73
2022/11/23 05:52:58;;;;;;;17.65;9.38;;;;;;;-0.97;100.00;99275.25;1853424;76;21056;-72
2022/11/23 05:55:25;;;;;;;13.90;8.73;;;;;;;-1.03;100.00;99268.08;1844684;76;21572;-72
2022/11/23 05:57:52;;;;;;;13.93;9.00;;;;;;;-1.04;100.00;99278.45;1841663;77;21413;-70
2022/11/23 06:00:19;;;;;;;15.03;9.25;;;;;;;-1.00;100.00;99266.33;1837571;76;21017;-73
2022/11/23 06:10:17;;;;;;;17.55;9.73;;;;;;;-1.22;100.00;99280.94;1784427;79;23527;-71
2022/11/23 10:28:21;;;;;;;38.55;18.67;;;;;;;-2.63;100.00;99303.24;1801712;78;23003;-68
2022/11/23 10:30:56;;;;;;;38.50;21.27;;;;;;;-2.53;100.00;99309.53;1728042;81;21082;-69
2022/11/23 10:33:33;;;;;;;29.18;14.90;;;;;;;-2.32;100.00;99305.92;1716858;81;21030;-70
2022/11/23 10:36:00;;;;;;;22.82;13.45;;;;;;;-2.13;100.00;99305.19;1728612;81;21054;-69
2022/11/23 10:38:27;;;;;;;22.37;12.13;;;;;;;-1.97;100.00;99300.80;1724418;81;21549;-70
2022/11/23 10:41:09;;;;;;;18.65;11.20;;;;;;;-1.84;100.00;99310.16;1724168;81;21378;-69
2022/11/23 10:44:00;;;;;;;18.95;10.75;;;;;;;-1.71;100.00;99303.53;1724891;81;21103;-69
2022/11/23 10:46:37;;;;;;;29.72;17.12;;;;;;;-1.57;100.00;99307.86;1693683;83;21098;-69
2022/11/23 10:49:22;;;;;;;20.97;12.73;;;;;;;-1.44;100.00;99292.34;1686057;83;21136;-69
2022/11/23 10:51:56;;;;;;;20.43;12.15;;;;;;;-1.30;100.00;99294.49;1686863;84;21070;-69
2022/11/23 10:54:48;;;;;;;19.87;11.45;;;;;;;-1.17;100.00;99305.19;1683070;84;21646;-69
2022/11/23 10:57:36;;;;;;;21.05;12.37;;;;;;;-1.07;100.00;99304.25;1676081;84;21067;-69
2022/11/23 11:00:14;;;;;;;25.97;14.10;;;;;;;-0.94;100.00;99304.73;1680020;84;21585;-69
2022/11/23 11:02:46;;;;;;;35.50;19.82;;;;;;;-0.93;100.00;99315.73;1675800;84;21070;-70
2022/11/23 11:05:37;;;;;;;26.27;15.68;;;;;;;-0.92;100.00;99308.83;1680804;84;21527;-69
2022/11/23 11:08:18;;;;;;;17.98;11.65;;;;;;;-0.81;100.00;99316.73;1653139;85;21058;-68
2022/11/23 11:10:48;;;;;;;20.12;12.35;;;;;;;-0.71;100.00;99299.77;1681078;84;21118;-68
2022/11/23 11:13:25;;;;;;;18.37;10.93;;;;;;;-0.70;100.00;99296.87;1671709;84;21689;-68
2022/11/23 11:16:00;;;;;;;20.67;12.27;;;;;;;-0.78;100.00;99298.96;1681077;84;21461;-68
2022/11/23 11:18:32;;;;;;;19.67;11.75;;;;;;;-0.87;100.00;99293.52;1683293;85;21646;-68
2022/11/23 11:21:06;;;;;;;27.70;16.42;;;;;;;-0.92;100.00;99281.31;1686413;84;21039;-68
2022/11/23 11:23:33;;;;;;;22.48;13.75;;;;;;;-0.86;100.00;99287.98;1675634;84;20980;-67
2022/11/23 11:26:06;;;;;;;19.65;11.95;;;;;;;-0.76;100.00;99293.70;1677151;84;20999;-68
2022/11/23 11:28:38;;;;;;;23.90;14.80;;;;;;;-0.68;100.00;99294.00;1635505;85;21041;-68
2022/11/23 11:31:55;;;;;;;49.80;27.20;;;;;;;-0.58;100.00;99289.02;1695453;84;21065;-68
2022/11/23 11:34:48;;;;;;;24.65;14.65;;;;;;;-0.54;100.00;99290.25;1656074;85;21049;-70
2022/11/23 11:37:34;;;;;;;21.07;12.88;;;;;;;-0.56;100.00;99296.30;1633618;85;21095;-68
2022/11/23 11:40:36;;;;;;;107.90;59.25;;;;;;;-0.57;100.00;99294.14;1636715;86;21113;-68
2022/11/23 11:43:24;;;;;;;41.60;25.32;;;;;;;-0.54;100.00;99294.26;1641638;85;21076;-68
2022/11/23 11:45:54;;;;;;;31.45;19.27;;;;;;;-0.55;100.00;99295.28;1639019;85;21072;-70
2022/11/23 11:48:42;;;;;;;28.15;18.02;;;;;;;-0.57;100.00;99300.83;1642047;85;21125;-70
2022/11/23 11:51:14;;;;;;;21.62;13.45;;;;;;;-0.53;100.00;99302.05;1645026;85;21097;-70
2022/11/23 11:54:00;;;;;;;22.32;14.33;;;;;;;-0.48;100.00;99288.57;1628243;85;21039;-67
2022/11/23 11:56:34;;;;;;;26.15;17.50;;;;;;;-0.53;100.00;99287.86;1654298;85;21518;-68
2022/11/23 11:59:25;;;;;;;20.75;12.75;;;;;;;-0.57;100.00;99279.44;1651982;85;21164;-68
2022/11/23 12:02:23;;;;;;;20.55;12.35;;;;;;;-0.59;100.00;99288.20;1690559;83;21149;-68
2022/11/23 12:05:23;;;;;;;20.00;12.50;;;;;;;-0.66;100.00;99288.73;1689716;83;21055;-68
2022/11/23 12:08:19;;;;;;;17.55;11.65;;;;;;;-0.68;100.00;99289.48;1674586;83;21043;-69
2022/11/23 12:13:51;;;;;;;19.48;11.50;;;;;;;-0.75;100.00;99290.52;1742693;79;21103;-75
2022/11/23 12:16:27;;;;;;;19.20;12.50;;;;;;;-0.69;100.00;99293.17;1689558;83;21048;-75
2022/11/23 12:19:24;;;;;;;20.30;12.07;;;;;;;-0.66;100.00;99300.77;1694633;83;21108;-75
2022/11/23 12:22:26;;;;;;;18.07;11.93;;;;;;;-0.60;100.00;99299.91;1688690;83;21015;-73
2022/11/23 12:25:25;;;;;;;20.72;12.75;;;;;;;-0.62;100.00;99300.66;1732045;78;21135;-73
2022/11/23 12:28:01;;;;;;;20.25;12.70;;;;;;;-0.68;100.00;99305.52;1650789;85;21600;-73
